Observations for SYDNEY INTL AIRPORT, Australia (YSSY)

YSSY 231000Z 20009KT 9999 FEW030 14/10 Q1024 NOSIG  
YSSY 230930Z 21007KT CAVOK 14/10 Q1024 NOSIG
YSSY 230900Z 21006KT CAVOK 13/10 Q1024 NOSIG
YSSY 230830Z 22007KT CAVOK 14/10 Q1023 NOSIG
YSSY 230800Z 16009KT CAVOK 15/09 Q1023 NOSIG
YSSY 230730Z 15006KT CAVOK 14/07 Q1023 NOSIG
YSSY 230700Z 01003KT CAVOK 18/02 Q1022 FM0730 23010KT CAVOK 
YSSY 230630Z 34005KT CAVOK 19/M00 Q1022 FM0700 23010KT CAVOK
YSSY 230600Z 35005KT CAVOK 19/M00 Q1022 FM0630 23010KT CAVOK
YSSY 230530Z 00000KT CAVOK 20/00 Q1022  
YSSY 230500Z 35004KT CAVOK 19/M00 Q1022 FM0630 23008KT CAVOK
YSSY 230430Z 31006KT CAVOK 20/02 Q1022  
YSSY 230400Z 31005KT CAVOK 19/03 Q1022 NOSIG
YSSY 230330Z 30006KT CAVOK 19/03 Q1022 NOSIG
YSSY 230300Z 29007KT CAVOK 19/03 Q1023 NOSIG
YSSY 230230Z 31007KT CAVOK 18/04 Q1023 NOSIG
YSSY 230200Z 31005KT CAVOK 16/04 Q1024 NOSIG
YSSY 230130Z 30006KT CAVOK 15/05 Q1024 NOSIG
YSSY 230100Z 29008KT CAVOK 14/04 Q1024 NOSIG
YSSY 230030Z 31009KT CAVOK 14/04 Q1024 NOSIG
YSSY 230000Z 30010KT CAVOK 14/05 Q1025 NOSIG
YSSY 222330Z 31008KT CAVOK 12/05 Q1025  
YSSY 222300Z 30008KT CAVOK 11/04 Q1025 NOSIG
YSSY 222230Z 32008KT CAVOK 10/04 Q1025 NOSIG
YSSY 222200Z 32007KT CAVOK 09/04 Q1025 NOSIG
YSSY 222130Z 32009KT CAVOK 09/04 Q1024 NOSIG
YSSY 222100Z 32010KT CAVOK 08/04 Q1024 NOSIG
YSSY 222030Z 31008KT CAVOK 08/04 Q1024 NOSIG
YSSY 222000Z 32007KT CAVOK 08/04 Q1024 NOSIG
YSSY 221930Z 34007KT CAVOK 08/04 Q1024 NOSIG
YSSY 221900Z 32007KT CAVOK 08/05 Q1024 NOSIG
YSSY 221830Z 32007KT CAVOK 08/04 Q1024 NOSIG
YSSY 221800Z 32006KT CAVOK 08/06 Q1024 NOSIG
YSSY 221730Z 32007KT CAVOK 09/07 Q1024 NOSIG
YSSY 221700Z 32007KT CAVOK 09/07 Q1024 NOSIG
YSSY 221630Z 33007KT CAVOK 09/08 Q1024 NOSIG
YSSY 221600Z 34005KT CAVOK 10/08 Q1024 NOSIG
YSSY 221530Z 33006KT CAVOK 10/09 Q1025  
YSSY 221500Z 32006KT CAVOK 10/08 Q1025 NOSIG
YSSY 221430Z 32006KT CAVOK 11/09 Q1025 NOSIG
YSSY 221400Z 29006KT CAVOK 12/10 Q1025 NOSIG
YSSY 221330Z 33006KT CAVOK 12/10 Q1025  
YSSY 221300Z 32005KT CAVOK 13/10 Q1025 NOSIG
YSSY 221230Z 34005KT CAVOK 13/11 Q1025 NOSIG
YSSY 221200Z 32006KT CAVOK 13/11 Q1025 NOSIG
YSSY 221130Z 35004KT CAVOK 14/11 Q1026 NOSIG
YSSY 221100Z 31004KT CAVOK 14/10 Q1026 NOSIG
YSSY 221030Z 00000KT CAVOK 14/11 Q1026 NOSIG
YSSY 221000Z 36005KT CAVOK 15/11 Q1026 NOSIG
YSSY 220930Z 36004KT CAVOK 15/10 Q1026 NOSIG